createdAt,value
2022-12-01T00:00:07.308Z,65.03
2022-12-01T00:02:42.431Z,65.06
2022-12-01T00:05:16.252Z,64.89
2022-12-01T00:07:50.395Z,65.16
2022-12-01T00:10:31.579Z,65.06
2022-12-01T00:13:07.488Z,65.20
2022-12-01T00:15:40.876Z,65.37
2022-12-01T00:18:15.753Z,65.31
2022-12-01T00:20:56.073Z,65.24
2022-12-01T00:23:29.606Z,65.36
2022-12-01T00:26:07.123Z,65.44
2022-12-01T00:28:40.586Z,65.40
2022-12-01T00:31:14.690Z,65.32
2022-12-01T00:33:49.632Z,65.52
2022-12-01T00:36:24.074Z,65.52
2022-12-01T00:38:58.202Z,65.60
2022-12-01T00:41:31.739Z,65.57
2022-12-01T00:44:05.998Z,65.59
2022-12-01T00:46:39.653Z,65.54
2022-12-01T00:49:15.785Z,65.57
2022-12-01T00:51:49.424Z,65.59
2022-12-01T00:54:23.028Z,65.70
2022-12-01T00:56:56.579Z,65.67
2022-12-01T00:59:30.245Z,65.67
2022-12-01T01:02:04.023Z,65.71
2022-12-01T01:04:39.635Z,65.32
2022-12-01T01:07:13.087Z,65.74
2022-12-01T01:09:46.868Z,65.73
2022-12-01T01:12:20.326Z,65.44
2022-12-01T01:14:53.887Z,65.77
2022-12-01T01:17:28.132Z,65.78
2022-12-01T01:20:05.103Z,65.95
2022-12-01T01:22:38.639Z,66.07
2022-12-01T01:25:12.305Z,66.16
2022-12-01T01:27:45.992Z,66.15
2022-12-01T01:30:20.098Z,66.19
2022-12-01T01:32:53.627Z,66.14
2022-12-01T01:35:28.655Z,66.36
2022-12-01T01:38:02.377Z,66.22
2022-12-01T01:40:35.921Z,66.29
2022-12-01T01:43:16.324Z,66.50
2022-12-01T01:45:50.096Z,66.33
2022-12-01T01:48:23.685Z,66.50
2022-12-01T01:50:58.840Z,66.56
2022-12-01T01:53:33.172Z,66.54
2022-12-01T01:56:08.663Z,66.48
2022-12-01T01:58:42.934Z,66.58
2022-12-01T02:01:16.833Z,66.59
2022-12-01T02:03:52.799Z,66.58
2022-12-01T02:06:27.829Z,66.73
2022-12-01T02:09:01.321Z,66.67
2022-12-01T02:11:54.371Z,66.81
2022-12-01T02:14:42.241Z,66.84
2022-12-01T02:17:27.493Z,66.86
2022-12-01T02:20:39.694Z,66.95
2022-12-01T02:23:39.419Z,66.73
2022-12-01T02:26:33.130Z,66.91
2022-12-01T02:29:39.969Z,67.04
2022-12-01T02:32:26.261Z,66.95
2022-12-01T02:35:05.841Z,66.76
2022-12-01T02:37:48.957Z,66.93
2022-12-01T02:40:28.313Z,66.94
2022-12-01T02:43:06.957Z,67.21
2022-12-01T02:45:47.468Z,67.27
2022-12-01T02:48:27.296Z,67.13
2022-12-01T02:51:06.827Z,67.16
2022-12-01T02:53:40.462Z,67.06
2022-12-01T02:56:16.122Z,67.23
2022-12-01T02:58:49.760Z,67.19
2022-12-01T03:01:44.211Z,67.28
2022-12-01T03:04:40.690Z,67.25
2022-12-01T03:07:27.267Z,67.25
2022-12-01T03:10:11.930Z,67.39
2022-12-01T03:12:59.528Z,67.35
2022-12-01T03:15:37.424Z,67.39
2022-12-01T03:18:18.368Z,67.56
2022-12-01T03:21:00.792Z,67.44
2022-12-01T03:23:39.080Z,67.57
2022-12-01T03:26:17.671Z,67.55
2022-12-01T03:28:55.940Z,67.71
2022-12-01T03:31:34.365Z,67.77
2022-12-01T03:34:14.502Z,67.93
2022-12-01T03:36:54.019Z,68.00
2022-12-01T03:39:33.069Z,68.10
2022-12-01T03:42:15.386Z,67.95
2022-12-01T03:44:52.674Z,67.86
2022-12-01T03:47:29.693Z,67.95
2022-12-01T03:50:05.374Z,68.02
2022-12-01T03:52:48.672Z,68.19
2022-12-01T03:55:26.247Z,68.16
2022-12-01T03:58:04.730Z,68.11
2022-12-01T04:00:39.352Z,67.97
2022-12-01T04:03:19.266Z,68.28
2022-12-01T04:05:53.235Z,68.30
2022-12-01T04:08:28.348Z,68.12
2022-12-01T04:11:21.961Z,68.35
2022-12-01T04:13:54.430Z,68.30
2022-12-01T04:16:28.177Z,68.28
2022-12-01T04:19:01.955Z,68.35
2022-12-01T04:21:35.502Z,68.34
2022-12-01T04:24:10.687Z,68.47
2022-12-01T04:26:46.168Z,68.60
2022-12-01T04:29:20.013Z,68.59
2022-12-01T04:31:53.568Z,68.63
2022-12-01T04:34:27.088Z,68.58
2022-12-01T04:37:00.612Z,68.53
2022-12-01T04:39:35.742Z,68.74
2022-12-01T04:42:09.602Z,68.79
2022-12-01T04:44:43.132Z,68.80
2022-12-01T04:47:16.580Z,68.72
2022-12-01T04:49:50.266Z,68.78
2022-12-01T04:52:23.641Z,68.40
2022-12-01T04:54:58.648Z,68.49
2022-12-01T04:57:32.200Z,68.68
2022-12-01T05:00:13.169Z,68.78
2022-12-01T05:02:46.718Z,68.82
2022-12-01T05:05:20.426Z,68.79
2022-12-01T05:07:54.001Z,68.80
2022-12-01T05:10:29.090Z,68.84
2022-12-01T05:13:02.833Z,68.85
2022-12-01T05:15:36.507Z,68.95
2022-12-01T05:18:10.084Z,69.05
2022-12-01T05:20:57.987Z,69.03
2022-12-01T05:23:33.240Z,69.03
2022-12-01T05:26:10.190Z,68.90
2022-12-01T05:28:43.825Z,68.88
2022-12-01T05:31:17.545Z,68.85
2022-12-01T05:33:51.182Z,68.82
2022-12-01T05:36:24.900Z,69.12
2022-12-01T05:38:58.530Z,68.98
2022-12-01T05:41:33.638Z,68.93
2022-12-01T05:44:07.308Z,69.13
2022-12-01T05:46:40.863Z,68.86
2022-12-01T05:49:14.415Z,68.90
2022-12-01T05:51:48.203Z,68.88
2022-12-01T05:54:21.874Z,68.93
2022-12-01T05:56:56.840Z,69.14
2022-12-01T05:59:30.574Z,69.06
2022-12-01T06:02:04.108Z,69.01
2022-12-01T06:04:37.655Z,69.20
2022-12-01T06:07:11.248Z,69.09
2022-12-01T06:09:48.258Z,69.34
2022-12-01T06:12:23.444Z,69.09
2022-12-01T06:14:57.097Z,69.09
2022-12-01T06:17:34.573Z,69.08
2022-12-01T06:20:12.353Z,69.22
2022-12-01T06:22:45.924Z,69.17
2022-12-01T06:25:19.643Z,69.05
2022-12-01T06:27:58.816Z,69.07
2022-12-01T06:30:33.889Z,69.10
2022-12-01T06:33:10.172Z,69.03
2022-12-01T06:35:43.767Z,69.07
2022-12-01T06:38:17.300Z,69.06
2022-12-01T06:40:51.993Z,68.94
2022-12-01T06:43:26.967Z,68.96
2022-12-01T06:46:02.358Z,69.06
2022-12-01T06:48:36.867Z,69.09
2022-12-01T06:51:11.095Z,68.94
2022-12-01T06:53:44.937Z,69.10
2022-12-01T06:56:21.471Z,69.22
2022-12-01T06:58:57.600Z,69.07
2022-12-01T07:01:33.488Z,69.07
2022-12-01T07:04:06.942Z,68.97
2022-12-01T07:06:40.395Z,68.99
2022-12-01T07:09:13.990Z,68.97
2022-12-01T07:11:47.543Z,69.02
2022-12-01T07:14:25.333Z,68.92
2022-12-01T07:17:04.811Z,68.75
2022-12-01T07:19:38.498Z,68.81
2022-12-01T07:22:13.117Z,68.85
2022-12-01T07:24:46.703Z,68.82
2022-12-01T07:27:20.301Z,68.66
2022-12-01T07:29:56.248Z,68.72
2022-12-01T07:32:40.809Z,68.77
2022-12-01T07:35:14.647Z,68.61
2022-12-01T07:37:48.115Z,68.63
2022-12-01T07:40:22.679Z,68.50
2022-12-01T07:42:58.884Z,68.65
2022-12-01T07:45:33.771Z,68.46
2022-12-01T07:48:07.754Z,68.46
2022-12-01T07:50:40.944Z,68.12
2022-12-01T07:53:14.588Z,68.13
2022-12-01T07:55:52.760Z,68.14
2022-12-01T07:58:28.637Z,68.19
2022-12-01T08:01:09.222Z,68.14
2022-12-01T08:03:45.996Z,67.83
2022-12-01T08:06:20.312Z,68.17
2022-12-01T08:08:54.267Z,68.10
2022-12-01T08:11:29.605Z,67.96
2022-12-01T08:14:03.417Z,67.88
2022-12-01T08:16:38.256Z,67.95
2022-12-01T08:19:14.447Z,67.96
2022-12-01T08:21:47.884Z,67.93
2022-12-01T08:24:25.794Z,67.74
2022-12-01T08:26:59.246Z,67.79
2022-12-01T08:29:32.798Z,67.86
2022-12-01T08:32:08.339Z,67.78
2022-12-01T08:34:41.808Z,67.68
2022-12-01T08:37:16.094Z,67.64
2022-12-01T08:39:52.430Z,67.73
2022-12-01T08:42:25.860Z,67.28
2022-12-01T08:45:02.105Z,67.52
2022-12-01T08:47:37.081Z,67.40
2022-12-01T08:50:11.166Z,67.41
2022-12-01T08:52:45.740Z,67.46
2022-12-01T08:55:24.008Z,67.17
2022-12-01T08:57:59.817Z,67.22
2022-12-01T09:00:36.438Z,67.27
2022-12-01T09:03:13.277Z,67.22
2022-12-01T09:05:46.718Z,66.99
2022-12-01T09:08:35.975Z,67.07
2022-12-01T09:11:12.341Z,66.88
2022-12-01T09:13:53.025Z,67.01
2022-12-01T09:16:27.968Z,67.02
2022-12-01T09:19:03.171Z,66.96
2022-12-01T09:21:38.337Z,67.06
2022-12-01T09:24:13.404Z,66.85
2022-12-01T09:26:47.368Z,67.07
2022-12-01T09:29:20.442Z,66.71
2022-12-01T09:31:56.933Z,66.81
2022-12-01T09:34:31.886Z,66.81
2022-12-01T09:37:05.413Z,66.76
2022-12-01T09:39:38.855Z,67.04
2022-12-01T09:42:18.706Z,67.17
2022-12-01T09:44:54.496Z,67.01
2022-12-01T09:47:33.321Z,67.09
2022-12-01T09:50:14.303Z,67.22
2022-12-01T09:52:52.157Z,67.27
2022-12-01T09:55:27.600Z,67.25
2022-12-01T09:58:02.772Z,67.18
2022-12-01T10:00:43.026Z,67.31
2022-12-01T10:03:27.945Z,67.20
2022-12-01T10:09:08.604Z,67.23
2022-12-01T10:11:44.644Z,67.32
2022-12-01T10:14:22.226Z,67.29
2022-12-01T10:17:04.905Z,67.53
2022-12-01T10:19:48.013Z,67.56
2022-12-01T10:22:44.712Z,67.40
2022-12-01T10:25:24.207Z,67.40
2022-12-01T10:28:18.960Z,67.38
2022-12-01T10:30:53.088Z,67.09
2022-12-01T10:33:28.132Z,67.29
2022-12-01T10:36:01.656Z,67.45
2022-12-01T10:38:39.573Z,67.67
2022-12-01T10:41:16.435Z,67.73
2022-12-01T10:43:53.272Z,67.69
2022-12-01T10:46:38.978Z,67.61
2022-12-01T10:49:15.812Z,67.50
2022-12-01T10:51:55.042Z,67.46
2022-12-01T10:54:36.502Z,67.29
2022-12-01T10:57:18.125Z,67.47
2022-12-01T10:59:54.087Z,67.34
2022-12-01T11:02:30.797Z,67.29
2022-12-01T11:05:07.816Z,67.05
2022-12-01T11:07:45.283Z,67.11
2022-12-01T11:10:24.245Z,67.08
2022-12-01T11:13:00.572Z,67.00
2022-12-01T11:15:35.400Z,67.07
2022-12-01T11:18:23.697Z,66.89
2022-12-01T11:21:08.484Z,66.91
2022-12-01T11:23:48.370Z,66.76
2022-12-01T11:26:26.395Z,66.90
2022-12-01T11:29:02.596Z,66.92
2022-12-01T11:31:41.982Z,66.74
2022-12-01T11:34:20.726Z,66.81
2022-12-01T11:36:57.075Z,66.75
2022-12-01T11:39:33.787Z,66.59
2022-12-01T11:42:20.851Z,66.47
2022-12-01T11:44:56.712Z,66.32
2022-12-01T11:47:30.874Z,66.29
2022-12-01T11:50:27.345Z,66.35
2022-12-01T11:53:04.654Z,66.31
2022-12-01T11:58:29.626Z,66.26
2022-12-01T12:01:05.005Z,66.31
2022-12-01T12:03:48.828Z,66.33
2022-12-01T12:06:46.038Z,66.25
2022-12-01T12:09:45.192Z,66.34
2022-12-01T12:12:34.789Z,66.23
2022-12-01T12:15:21.958Z,66.04
2022-12-01T12:18:23.063Z,66.40
2022-12-01T12:21:06.213Z,66.42
2022-12-01T12:24:07.623Z,66.22
2022-12-01T12:26:59.784Z,66.35
2022-12-01T12:29:42.860Z,66.17
2022-12-01T12:32:40.204Z,66.19
2022-12-01T12:35:29.858Z,66.53
2022-12-01T12:38:09.490Z,66.67
2022-12-01T12:40:57.628Z,66.82
2022-12-01T12:43:41.324Z,66.74
2022-12-01T12:46:54.547Z,66.73
2022-12-01T12:49:38.742Z,66.95
2022-12-01T12:52:17.550Z,66.91
2022-12-01T12:54:54.689Z,67.03
2022-12-01T12:57:32.599Z,67.25
2022-12-01T13:00:10.372Z,67.22
2022-12-01T13:02:47.821Z,67.19
2022-12-01T13:05:29.089Z,67.34
2022-12-01T13:08:05.841Z,67.30
2022-12-01T13:10:45.819Z,67.27
2022-12-01T13:13:32.527Z,67.38
2022-12-01T13:16:15.214Z,67.24
2022-12-01T13:18:54.300Z,67.46
2022-12-01T13:21:38.182Z,67.31
2022-12-01T13:24:19.869Z,67.42
2022-12-01T13:27:01.971Z,67.44
2022-12-01T13:29:43.695Z,67.43
2022-12-01T13:32:30.480Z,67.47
2022-12-01T13:35:07.497Z,67.53
2022-12-01T13:37:42.438Z,67.44
2022-12-01T13:40:23.574Z,67.68
2022-12-01T13:43:05.499Z,67.46
2022-12-01T13:45:42.971Z,67.73
2022-12-01T13:48:31.078Z,67.80
2022-12-01T13:51:05.282Z,67.75
2022-12-01T13:53:58.963Z,67.53
2022-12-01T13:56:46.936Z,67.85
2022-12-01T14:00:02.503Z,67.81
2022-12-01T14:02:45.847Z,67.67
2022-12-01T14:05:48.871Z,67.71
2022-12-01T14:08:24.106Z,67.80
2022-12-01T14:11:01.984Z,67.91
2022-12-01T14:13:53.422Z,68.14
2022-12-01T14:16:46.157Z,68.17
2022-12-01T14:19:34.294Z,68.14
2022-12-01T14:22:09.206Z,68.04
2022-12-01T14:24:44.768Z,68.26
2022-12-01T14:27:34.904Z,68.19
2022-12-01T14:31:00.058Z,68.36
2022-12-01T14:33:51.217Z,68.37
2022-12-01T14:36:34.020Z,68.29
2022-12-01T14:39:14.502Z,68.56
2022-12-01T14:41:51.749Z,68.44
2022-12-01T14:44:33.185Z,68.41
2022-12-01T14:47:12.428Z,68.68
2022-12-01T14:49:52.523Z,68.71
2022-12-01T14:52:33.385Z,68.67
2022-12-01T14:55:31.140Z,68.72
2022-12-01T14:58:09.062Z,68.69
2022-12-01T15:00:59.430Z,68.71
2022-12-01T15:03:37.502Z,68.76
2022-12-01T15:06:17.144Z,68.76
2022-12-01T15:09:32.656Z,69.03
2022-12-01T15:12:09.774Z,68.92
2022-12-01T15:14:49.824Z,69.03
2022-12-01T15:17:33.501Z,69.08
2022-12-01T15:20:32.436Z,68.93
2022-12-01T15:23:15.102Z,69.16
2022-12-01T15:25:48.720Z,69.14
2022-12-01T15:28:24.247Z,68.97
2022-12-01T15:30:58.828Z,69.11
2022-12-01T15:33:38.470Z,69.16
2022-12-01T15:36:12.058Z,68.90
2022-12-01T15:38:48.716Z,69.24
2022-12-01T15:41:29.375Z,68.92
2022-12-01T15:44:05.643Z,68.89
2022-12-01T15:46:39.281Z,68.97
2022-12-01T15:49:19.880Z,68.62
2022-12-01T15:51:55.093Z,68.81
2022-12-01T15:54:30.448Z,68.49
2022-12-01T15:57:07.416Z,68.50
2022-12-01T15:59:42.944Z,68.52
2022-12-01T16:02:28.494Z,68.34
2022-12-01T16:05:07.243Z,68.33
2022-12-01T16:08:11.960Z,68.24
2022-12-01T16:10:38.625Z,67.96
2022-12-01T16:13:45.021Z,67.95
2022-12-01T16:16:35.688Z,67.98
2022-12-01T16:22:36.095Z,67.49
2022-12-01T16:25:18.665Z,67.67
2022-12-01T16:27:54.152Z,67.57
2022-12-01T16:30:30.344Z,67.32
2022-12-01T16:33:05.938Z,67.24
2022-12-01T16:35:39.520Z,67.28
2022-12-01T16:38:20.544Z,67.19
2022-12-01T16:44:34.937Z,67.21
2022-12-01T16:47:15.572Z,67.12
2022-12-01T16:49:50.685Z,67.18
2022-12-01T16:55:34.134Z,67.00
2022-12-01T16:58:07.587Z,66.82
2022-12-01T17:00:41.236Z,66.69
2022-12-01T17:03:18.161Z,66.68
2022-12-01T17:05:52.680Z,66.53
2022-12-01T17:08:28.284Z,66.55
2022-12-01T17:11:06.681Z,66.12
2022-12-01T17:13:40.130Z,66.21
2022-12-01T17:16:18.797Z,65.93
2022-12-01T17:18:52.503Z,65.94
2022-12-01T17:21:26.069Z,65.81
2022-12-01T17:23:59.550Z,65.78
2022-12-01T17:26:36.743Z,65.81
2022-12-01T17:29:11.544Z,65.77
2022-12-01T17:31:45.135Z,65.78
2022-12-01T17:34:18.654Z,65.76
2022-12-01T17:36:52.395Z,65.66
2022-12-01T17:39:25.875Z,65.44
2022-12-01T17:42:00.880Z,65.31
2022-12-01T17:44:34.502Z,65.22
2022-12-01T17:47:08.012Z,65.18
2022-12-01T17:49:41.656Z,65.20
2022-12-01T17:52:15.323Z,65.03
2022-12-01T17:54:49.359Z,65.02
2022-12-01T17:57:24.450Z,64.88
2022-12-01T17:59:58.436Z,64.92
2022-12-01T18:02:32.078Z,64.92
2022-12-01T18:05:06.650Z,64.78
2022-12-01T18:07:40.327Z,64.95
2022-12-01T18:10:17.423Z,65.16
2022-12-01T18:12:52.384Z,64.94
2022-12-01T18:15:31.773Z,64.78
2022-12-01T18:18:10.522Z,64.82
2022-12-01T18:20:45.194Z,64.72
2022-12-01T18:23:21.598Z,64.65
2022-12-01T18:25:55.184Z,64.68
2022-12-01T18:28:30.262Z,64.60
2022-12-01T18:31:08.123Z,64.52
2022-12-01T18:33:44.149Z,64.51
2022-12-01T18:36:22.864Z,64.61
2022-12-01T18:38:58.475Z,64.39
2022-12-01T18:41:32.434Z,64.46
2022-12-01T18:44:09.738Z,64.40
2022-12-01T18:46:43.446Z,64.27
2022-12-01T18:49:17.289Z,64.13
2022-12-01T18:51:53.444Z,64.26
2022-12-01T18:54:29.330Z,64.21
2022-12-01T18:57:03.018Z,64.13
2022-12-01T18:59:41.465Z,64.32
2022-12-01T19:02:15.109Z,64.25
2022-12-01T19:04:50.317Z,64.22
2022-12-01T19:07:29.499Z,64.30
2022-12-01T19:10:03.815Z,64.15
2022-12-01T19:12:40.958Z,64.29
2022-12-01T19:15:16.380Z,64.27
2022-12-01T19:17:50.000Z,64.30
2022-12-01T19:20:23.541Z,64.37
2022-12-01T19:22:57.188Z,64.41
2022-12-01T19:25:30.760Z,64.29
2022-12-01T19:28:04.553Z,64.37
2022-12-01T19:30:45.338Z,64.20
2022-12-01T19:33:22.150Z,64.22
2022-12-01T19:36:04.817Z,64.21
2022-12-01T19:38:38.503Z,64.31
2022-12-01T19:41:13.388Z,64.34
2022-12-01T19:43:47.909Z,64.11
2022-12-01T19:46:23.658Z,64.25
2022-12-01T19:49:00.367Z,63.98
2022-12-01T19:51:36.375Z,63.89
2022-12-01T19:54:18.584Z,63.99
2022-12-01T19:56:52.235Z,64.12
2022-12-01T19:59:25.915Z,64.00
2022-12-01T20:02:03.717Z,63.88
2022-12-01T20:04:38.933Z,63.94
2022-12-01T20:07:12.416Z,63.89
2022-12-01T20:09:50.451Z,63.77
2022-12-01T20:12:24.187Z,63.81
2022-12-01T20:14:57.807Z,64.00
2022-12-01T20:17:36.002Z,63.90
2022-12-01T20:20:10.892Z,63.76
2022-12-01T20:22:44.431Z,63.90
2022-12-01T20:25:20.026Z,63.83
2022-12-01T20:27:53.527Z,63.80
2022-12-01T20:30:27.155Z,63.90
2022-12-01T20:33:06.459Z,63.81
2022-12-01T20:35:42.434Z,63.81
2022-12-01T20:38:15.928Z,63.81
2022-12-01T20:40:52.745Z,63.98
2022-12-01T20:43:26.397Z,63.79
2022-12-01T20:46:00.484Z,63.94
2022-12-01T20:48:36.250Z,64.03
2022-12-01T20:51:14.027Z,63.97
2022-12-01T20:54:26.292Z,63.95
2022-12-01T20:56:53.271Z,63.94
2022-12-01T20:59:26.916Z,63.70
2022-12-01T21:02:11.219Z,63.66
2022-12-01T21:04:45.812Z,63.67
2022-12-01T21:07:22.090Z,63.55
2022-12-01T21:10:07.219Z,63.70
2022-12-01T21:12:59.171Z,63.68
2022-12-01T21:15:36.196Z,63.56
2022-12-01T21:18:20.450Z,63.72
2022-12-01T21:21:08.140Z,63.65
2022-12-01T21:23:41.677Z,63.65
2022-12-01T21:26:16.556Z,63.75
2022-12-01T21:28:50.063Z,63.85
2022-12-01T21:31:24.713Z,63.65
2022-12-01T21:33:58.608Z,63.83
2022-12-01T21:36:33.426Z,63.95
2022-12-01T21:39:15.318Z,63.78
2022-12-01T21:41:57.555Z,63.82
2022-12-01T21:44:37.776Z,63.67
2022-12-01T21:47:18.483Z,63.60
2022-12-01T21:49:54.331Z,63.67
2022-12-01T21:52:40.158Z,63.81
2022-12-01T21:55:33.489Z,63.69
2022-12-01T21:58:30.305Z,63.57
2022-12-01T22:01:16.163Z,63.51
2022-12-01T22:03:49.759Z,63.64
2022-12-01T22:06:30.550Z,63.57
2022-12-01T22:09:15.616Z,63.56
2022-12-01T22:11:54.004Z,63.63
2022-12-01T22:14:33.760Z,63.64
2022-12-01T22:17:19.932Z,63.72
2022-12-01T22:20:02.438Z,63.88
2022-12-01T22:22:39.492Z,63.95
2022-12-01T22:25:23.901Z,63.83
2022-12-01T22:28:00.120Z,63.71
2022-12-01T22:30:33.488Z,63.70
2022-12-01T22:33:16.083Z,63.92
2022-12-01T22:35:51.598Z,63.85
2022-12-01T22:38:46.647Z,63.86
2022-12-01T22:41:22.734Z,63.97
2022-12-01T22:43:59.690Z,63.82
2022-12-01T22:46:35.620Z,64.03
2022-12-01T22:49:19.507Z,63.79
2022-12-01T22:51:56.102Z,63.76
2022-12-01T22:54:33.876Z,63.90
2022-12-01T22:57:16.497Z,63.92
2022-12-01T22:59:52.877Z,63.92
2022-12-01T23:02:30.928Z,63.92
2022-12-01T23:05:23.686Z,63.81
2022-12-01T23:07:58.192Z,63.84
2022-12-01T23:10:35.275Z,63.87
2022-12-01T23:13:18.167Z,63.71
2022-12-01T23:16:04.209Z,63.80
2022-12-01T23:18:50.849Z,63.79
2022-12-01T23:21:37.011Z,63.63
2022-12-01T23:24:17.614Z,63.63
2022-12-01T23:26:55.310Z,63.54
2022-12-01T23:29:38.775Z,63.62
2022-12-01T23:32:16.428Z,63.61
2022-12-01T23:34:59.883Z,63.70
2022-12-01T23:37:41.569Z,63.60
2022-12-01T23:40:43.750Z,63.34
2022-12-01T23:43:27.334Z,63.67
2022-12-01T23:46:18.408Z,63.66
2022-12-01T23:49:12.466Z,63.45
2022-12-01T23:52:02.486Z,63.50
2022-12-01T23:54:53.182Z,63.55
2022-12-01T23:57:48.419Z,63.55
